Time;durP1;ratioP1;P1;durP2;ratioP2;P2;SDS_P1;SDS_P2;PMS_P1;PMS_P2;Temp;Humidity;BMP_temperature;BMP_pressure;BME280_temperature;BME280_humidity;BME280_pressure;Samples;Min_cycle;Max_cycle;Signal;HPM_P1;HPM_P2
2022/10/27 00:00:51;;;;;;;6.20;4.30;;;13.90;99.90;;;14.27;nan;101409.13;4950968;28;20752;-67
2022/10/27 00:03:18;;;;;;;5.13;4.03;;;13.90;99.90;;;14.38;nan;101420.53;4963139;28;20653;-66
2022/10/27 00:05:46;;;;;;;6.87;4.40;;;13.90;99.90;;;14.38;nan;101412.66;4954967;28;20667;-66
2022/10/27 00:08:20;;;;;;;4.40;3.87;;;13.90;99.90;;;14.41;nan;101414.22;4953989;28;20636;-66
2022/10/27 00:10:58;;;;;;;4.17;3.47;;;13.90;99.90;;;14.38;nan;101417.06;4958993;28;20644;-67
2022/10/27 00:13:26;;;;;;;5.30;4.20;;;13.90;99.90;;;14.34;nan;101411.22;4965466;28;20670;-67
2022/10/27 00:16:05;;;;;;;11.67;4.37;;;13.90;99.90;;;14.38;nan;101410.03;4963693;28;20665;-66
2022/10/27 00:18:33;;;;;;;7.80;4.30;;;13.90;99.90;;;14.36;nan;101417.19;4955121;28;21021;-66
2022/10/27 00:21:05;;;;;;;5.17;4.33;;;13.90;99.90;;;14.38;nan;101417.91;4962701;28;20628;-67
2022/10/27 00:23:33;;;;;;;5.50;4.37;;;13.90;99.90;;;14.37;nan;101420.66;4973143;28;20650;-68
2022/10/27 00:26:01;;;;;;;3.97;3.60;;;13.90;99.90;;;14.41;nan;101427.34;4936906;29;20660;-67
2022/10/27 00:28:29;;;;;;;5.67;3.83;;;13.90;99.90;;;14.37;nan;101431.16;4941154;28;20646;-66
2022/10/27 00:30:58;;;;;;;7.23;4.13;;;13.90;99.90;;;14.31;nan;101429.81;4954465;28;20693;-67
2022/10/27 00:33:25;;;;;;;4.40;3.50;;;13.80;99.90;;;14.29;nan;101433.53;4954392;28;21278;-67
2022/10/27 00:35:52;;;;;;;5.30;4.10;;;13.80;99.90;;;14.29;nan;101433.53;4953221;28;20653;-67
2022/10/27 00:38:21;;;;;;;7.13;3.73;;;13.80;99.90;;;14.27;nan;101425.72;4955767;28;20588;-66
2022/10/27 00:40:49;;;;;;;6.20;3.93;;;13.80;99.90;;;14.26;nan;101431.09;4969621;28;20612;-66
2022/10/27 00:43:32;;;;;;;4.37;3.97;;;13.80;99.90;;;14.30;nan;101432.56;4956344;28;20626;-67
2022/10/27 00:46:19;;;;;;;8.47;3.30;;;13.80;99.90;;;14.30;nan;101427.31;4955300;28;20642;-66
2022/10/27 00:48:51;;;;;;;5.10;3.10;;;13.80;99.90;;;14.07;nan;101426.38;4953351;28;20642;-67
2022/10/27 00:51:19;;;;;;;4.60;3.30;;;13.70;99.90;;;14.03;nan;101419.69;4970510;28;20608;-67
2022/10/27 00:53:47;;;;;;;5.27;4.00;;;13.70;99.90;;;14.08;nan;101428.03;4958066;28;20682;-67
2022/10/27 00:56:16;;;;;;;3.60;2.90;;;13.70;99.90;;;13.87;nan;101419.94;4965821;28;20615;-66
2022/10/27 00:58:44;;;;;;;4.43;3.23;;;13.60;99.90;;;13.93;nan;101416.88;4967990;28;20647;-66
2022/10/27 01:01:12;;;;;;;5.37;3.33;;;13.60;99.90;;;13.80;nan;101410.84;4955413;28;20643;-66
2022/10/27 01:03:39;;;;;;;4.20;3.60;;;13.60;99.90;;;13.87;nan;101411.25;4964781;28;20638;-64
2022/10/27 01:06:07;;;;;;;4.77;3.97;;;13.50;99.90;;;13.86;nan;101418.25;4954598;28;20674;-66
2022/10/27 01:08:35;;;;;;;5.40;3.87;;;13.50;99.90;;;13.88;nan;101413.75;4954854;28;20620;-67
2022/10/27 01:11:02;;;;;;;5.00;3.80;;;13.50;99.90;;;13.89;nan;101433.78;4954512;28;20624;-68
2022/10/27 01:13:29;;;;;;;4.40;3.33;;;13.50;99.90;;;14.03;nan;101425.72;4970390;28;21235;-66
2022/10/27 01:16:23;;;;;;;6.77;3.90;;;13.50;99.90;;;13.91;nan;101423.19;4952009;28;20656;-66
2022/10/27 01:19:29;;;;;;;5.83;3.70;;;13.50;99.90;;;13.87;nan;101435.69;4953941;28;20636;-66
2022/10/27 01:22:25;;;;;;;4.10;3.60;;;13.50;99.90;;;13.81;nan;101427.44;4940239;28;20629;-67
2022/10/27 01:25:21;;;;;;;4.60;3.20;;;13.40;99.90;;;13.86;nan;101413.00;4953128;28;20664;-66
2022/10/27 01:28:30;;;;;;;4.67;3.53;;;13.40;99.90;;;13.83;nan;101404.53;4969002;28;21180;-67
2022/10/27 01:31:10;;;;;;;4.27;3.67;;;13.40;99.90;;;13.85;nan;101398.25;4957462;28;20640;-66
2022/10/27 01:33:49;;;;;;;4.80;3.40;;;13.40;99.90;;;13.80;nan;101415.25;4969912;28;20667;-67
2022/10/27 01:36:34;;;;;;;6.80;3.10;;;13.40;99.90;;;13.77;nan;101403.22;4969993;28;20630;-66
2022/10/27 01:39:08;;;;;;;4.40;3.07;;;13.40;99.90;;;13.74;nan;101415.69;4973619;28;21177;-66
2022/10/27 01:42:09;;;;;;;4.40;3.37;;;13.30;99.90;;;13.59;nan;101403.69;4974550;28;20624;-66
2022/10/27 01:44:48;;;;;;;3.20;2.90;;;13.30;99.90;;;13.54;nan;101409.31;4973402;28;20665;-66
2022/10/27 01:47:16;;;;;;;5.53;3.73;;;13.20;99.90;;;13.51;nan;101406.03;4968645;28;20624;-66
2022/10/27 01:49:43;;;;;;;4.80;3.50;;;13.20;99.90;;;13.52;nan;101398.06;4962457;28;20646;-68
2022/10/27 01:52:42;;;;;;;3.90;3.37;;;13.10;99.90;;;13.49;nan;101395.66;4956809;28;20665;-66
2022/10/27 01:55:13;;;;;;;3.40;3.13;;;13.10;99.90;;;13.50;nan;101402.56;4960638;28;20684;-66
2022/10/27 01:58:02;;;;;;;4.57;4.00;;;13.10;99.90;;;13.45;nan;101398.63;4973287;28;20636;-66
2022/10/27 02:00:39;;;;;;;5.10;4.03;;;13.10;99.90;;;13.45;nan;101396.00;4961711;28;20624;-67
2022/10/27 02:03:14;;;;;;;5.57;3.97;;;13.00;99.90;;;13.44;nan;101399.59;4952995;28;20604;-66
2022/10/27 02:06:03;;;;;;;4.20;3.80;;;13.00;99.90;;;13.45;nan;101401.25;4968986;28;20674;-66
2022/10/27 02:08:41;;;;;;;5.83;4.50;;;13.00;99.90;;;13.48;nan;101407.09;4964313;28;21009;-66
2022/10/27 02:11:09;;;;;;;4.33;3.77;;;13.00;99.90;;;13.41;nan;101412.91;4934428;29;20621;-66
2022/10/27 02:13:40;;;;;;;4.57;3.63;;;13.00;99.90;;;13.40;nan;101419.06;4964845;28;20673;-67
2022/10/27 02:16:24;;;;;;;3.87;3.50;;;13.00;99.90;;;13.42;nan;101412.78;4944502;28;20664;-66
2022/10/27 02:19:27;;;;;;;3.63;3.23;;;13.00;99.90;;;13.41;nan;101426.84;4967213;28;20623;-66
2022/10/27 02:21:57;;;;;;;5.20;3.17;;;13.00;99.90;;;13.33;nan;101423.91;4963934;28;20674;-66
2022/10/27 02:24:24;;;;;;;4.40;3.40;;;12.90;99.90;;;13.32;nan;101426.66;4970676;28;20662;-68
2022/10/27 02:26:58;;;;;;;6.00;3.60;;;12.90;99.90;;;13.45;nan;101422.22;4973151;28;20619;-67
2022/10/27 02:29:47;;;;;;;4.17;3.20;;;13.00;99.90;;;13.40;nan;101422.53;4963050;28;20640;-66
2022/10/27 02:32:21;;;;;;;8.33;3.63;;;13.00;99.90;;;13.33;nan;101415.22;4967946;28;20642;-66
2022/10/27 02:34:49;;;;;;;6.07;2.67;;;12.90;99.90;;;13.35;nan;101421.19;4986531;28;21223;-66
2022/10/27 02:37:30;;;;;;;3.40;3.00;;;12.90;99.90;;;13.26;nan;101420.06;4952980;29;21207;-66
2022/10/27 02:39:57;;;;;;;3.67;3.37;;;12.80;99.90;;;13.28;nan;101423.41;4952773;29;21001;-66
2022/10/27 02:42:24;;;;;;;6.13;3.50;;;12.80;99.90;;;13.29;nan;101411.16;4952703;29;20624;-66
2022/10/27 02:44:51;;;;;;;3.93;3.53;;;12.80;99.90;;;13.22;nan;101422.03;4951874;28;21278;-66
2022/10/27 02:47:18;;;;;;;3.43;3.17;;;12.80;99.90;;;13.21;nan;101424.78;4952511;28;20632;-66
2022/10/27 02:49:45;;;;;;;5.30;3.73;;;12.80;99.90;;;13.21;nan;101416.91;4966025;28;20645;-66
2022/10/27 02:52:12;;;;;;;4.97;3.30;;;12.80;99.90;;;13.15;nan;101420.81;4952024;28;20644;-66
2022/10/27 02:54:40;;;;;;;5.37;3.60;;;12.70;99.90;;;13.21;nan;101423.00;4952002;28;20676;-66
2022/10/27 02:57:08;;;;;;;2.97;2.77;;;12.70;99.90;;;13.15;nan;101412.13;4959293;28;21010;-66
2022/10/27 02:59:34;;;;;;;3.87;3.47;;;12.70;99.90;;;13.14;nan;101407.81;4936476;28;20633;-66
2022/10/27 03:02:01;;;;;;;10.23;3.70;;;12.70;99.90;;;13.16;nan;101392.84;4952727;28;20641;-66
2022/10/27 03:04:28;;;;;;;3.63;3.17;;;12.70;99.90;;;13.06;nan;101387.41;4962198;28;20664;-65
2022/10/27 03:06:55;;;;;;;2.90;2.70;;;12.60;99.90;;;13.10;nan;101390.63;4966603;28;21009;-66
2022/10/27 03:09:22;;;;;;;4.00;3.60;;;12.60;99.90;;;13.06;nan;101397.03;4971749;28;20614;-66
2022/10/27 03:11:49;;;;;;;2.60;2.43;;;12.60;99.90;;;13.11;nan;101390.53;4961892;28;20647;-66
2022/10/27 03:14:16;;;;;;;3.13;2.93;;;12.60;99.90;;;13.16;nan;101398.91;4952556;28;20676;-66
2022/10/27 03:16:43;;;;;;;3.30;2.97;;;12.60;99.90;;;13.06;nan;101410.97;4951985;28;20633;-66
2022/10/27 03:19:10;;;;;;;3.37;3.07;;;12.60;99.90;;;13.06;nan;101404.91;4953673;28;20620;-66
2022/10/27 03:21:37;;;;;;;4.70;2.87;;;12.60;99.90;;;13.03;nan;101405.09;4958842;28;21195;-66
2022/10/27 03:24:04;;;;;;;3.80;3.10;;;12.60;99.90;;;13.09;nan;101415.16;4967567;28;20656;-66
2022/10/27 03:26:31;;;;;;;3.67;3.07;;;12.60;99.90;;;13.13;nan;101414.84;4952364;28;20643;-66
2022/10/27 03:28:58;;;;;;;3.30;3.00;;;12.60;99.90;;;13.07;nan;101417.06;4951372;28;20654;-67
2022/10/27 03:31:24;;;;;;;3.77;3.47;;;12.60;99.90;;;13.10;nan;101411.59;4953216;28;20639;-67
2022/10/27 03:33:51;;;;;;;3.17;2.87;;;12.60;99.90;;;12.99;nan;101409.69;4952757;28;20676;-66
2022/10/27 03:36:18;;;;;;;3.33;3.10;;;12.60;99.90;;;13.06;nan;101410.13;4952647;28;20690;-66
2022/10/27 03:38:45;;;;;;;3.20;2.90;;;12.50;99.90;;;12.99;nan;101403.63;4952063;28;20624;-67
2022/10/27 03:41:12;;;;;;;2.90;2.70;;;12.50;99.90;;;12.92;nan;101413.69;4951503;28;20636;-66
2022/10/27 03:43:39;;;;;;;2.60;2.40;;;12.50;99.90;;;12.86;nan;101403.63;4953528;29;20628;-66
2022/10/27 03:46:08;;;;;;;2.93;2.70;;;12.40;99.90;;;12.84;nan;101397.66;4952396;28;20707;-66
2022/10/27 03:48:35;;;;;;;3.27;3.07;;;12.40;99.90;;;12.87;nan;101401.84;4967190;28;20630;-66
2022/10/27 03:51:02;;;;;;;2.87;2.63;;;12.40;99.90;;;12.85;nan;101395.88;4955657;28;21216;-66
2022/10/27 03:53:29;;;;;;;2.87;2.67;;;12.40;99.90;;;12.86;nan;101393.16;4962147;28;20663;-66
2022/10/27 03:55:55;;;;;;;2.87;2.67;;;12.40;99.90;;;12.88;nan;101388.66;5012708;22;20702;-67
2022/10/27 03:58:22;;;;;;;3.47;3.17;;;12.40;99.90;;;12.89;nan;101394.72;5011323;28;20630;-65
2022/10/27 04:00:50;;;;;;;2.30;2.20;;;12.40;99.90;;;12.82;nan;101396.09;5009889;28;20642;-66
2022/10/27 04:03:17;;;;;;;3.23;2.80;;;12.40;99.90;;;12.85;nan;101396.72;5010676;28;20717;-66
2022/10/27 04:05:49;;;;;;;2.70;2.50;;;12.40;99.90;;;12.84;nan;101397.66;5009197;28;20662;-66
2022/10/27 04:08:16;;;;;;;4.73;3.47;;;12.30;99.90;;;12.83;nan;101395.16;4994076;28;20616;-65
2022/10/27 04:10:44;;;;;;;3.80;3.43;;;12.30;99.90;;;12.84;nan;101400.28;5009036;28;21022;-66
2022/10/27 04:13:11;;;;;;;4.33;3.40;;;12.30;99.90;;;12.81;nan;101416.22;5010050;28;20653;-65
2022/10/27 04:15:38;;;;;;;4.23;3.20;;;12.30;99.90;;;12.77;nan;101408.66;5009145;28;20665;-66
2022/10/27 04:18:05;;;;;;;3.57;3.10;;;12.30;99.90;;;12.71;nan;101414.34;5009805;28;20628;-65
2022/10/27 04:20:32;;;;;;;2.67;2.47;;;12.30;99.90;;;12.68;nan;101425.00;5009915;28;20660;-65
2022/10/27 04:22:59;;;;;;;2.70;2.50;;;12.30;99.90;;;12.60;nan;101416.84;5013776;28;20632;-66
2022/10/27 04:25:27;;;;;;;3.83;2.93;;;12.20;99.90;;;12.57;nan;101420.50;5012929;28;20666;-67
2022/10/27 04:28:03;;;;;;;3.93;3.50;;;12.20;99.90;;;12.53;nan;101423.41;5013633;28;20634;-65
2022/10/27 04:30:31;;;;;;;4.87;3.40;;;12.20;99.90;;;12.58;nan;101423.97;5013083;28;20643;-66
2022/10/27 04:32:58;;;;;;;4.50;3.13;;;12.10;99.90;;;12.66;nan;101419.88;4996592;28;20673;-65
2022/10/27 04:35:25;;;;;;;3.20;3.00;;;12.20;99.90;;;12.69;nan;101406.56;4967671;28;21412;-66
2022/10/27 04:37:57;;;;;;;3.70;3.40;;;12.20;99.90;;;12.59;nan;101407.28;4977801;28;21209;-65
2022/10/27 04:40:23;;;;;;;3.57;3.27;;;12.10;99.90;;;12.60;nan;101406.38;4994135;28;20622;-65
2022/10/27 04:42:50;;;;;;;4.87;3.70;;;12.10;99.90;;;12.54;nan;101404.16;5001551;28;20637;-67
2022/10/27 04:45:18;;;;;;;4.27;3.50;;;12.10;99.90;;;12.57;nan;101398.72;5014582;28;20648;-65
2022/10/27 04:47:45;;;;;;;4.13;3.40;;;12.10;99.90;;;12.45;nan;101403.84;5012573;28;21220;-67
2022/10/27 04:50:13;;;;;;;4.17;3.77;;;12.10;99.90;;;12.43;nan;101400.50;5011939;28;20732;-65
2022/10/27 04:52:40;;;;;;;4.00;2.90;;;12.00;99.90;;;12.49;nan;101404.47;5014092;28;20636;-65
2022/10/27 04:55:10;;;;;;;5.17;3.50;;;12.10;99.90;;;12.56;nan;101403.13;5012037;28;20862;-65
2022/10/27 04:57:37;;;;;;;3.93;3.20;;;12.10;99.90;;;12.51;nan;101404.38;5014408;28;20663;-67
2022/10/27 05:00:05;;;;;;;4.43;4.03;;;12.10;99.90;;;12.51;nan;101406.97;5012421;28;21019;-66
2022/10/27 05:02:31;;;;;;;4.00;3.60;;;12.10;99.90;;;12.58;nan;101408.25;5012311;28;20630;-65
2022/10/27 05:05:02;;;;;;;6.00;3.60;;;12.10;99.90;;;12.56;nan;101410.13;5012427;28;21002;-66
2022/10/27 05:07:28;;;;;;;5.30;4.40;;;12.10;99.90;;;12.43;nan;101404.91;5013089;28;20985;-65
2022/10/27 05:09:55;;;;;;;4.00;3.70;;;12.10;99.90;;;12.33;nan;101414.28;5013317;28;20965;-65
2022/10/27 05:12:23;;;;;;;4.20;3.40;;;12.00;99.90;;;12.29;nan;101410.19;5010520;28;20648;-65
2022/10/27 05:14:49;;;;;;;6.27;4.10;;;12.00;99.90;;;12.36;nan;101409.69;5012033;28;20699;-65
2022/10/27 05:17:16;;;;;;;4.67;3.67;;;12.00;99.90;;;12.30;nan;101420.59;5011144;28;20703;-65
2022/10/27 05:19:45;;;;;;;4.47;4.07;;;12.00;99.90;;;12.39;nan;101429.59;5012143;28;20699;-65
2022/10/27 05:22:12;;;;;;;4.40;3.60;;;11.90;99.90;;;12.31;nan;101437.94;5012488;28;20628;-65
2022/10/27 05:24:39;;;;;;;3.00;2.80;;;11.90;99.90;;;12.38;nan;101436.59;5012286;28;20666;-65
2022/10/27 05:27:06;;;;;;;3.77;3.40;;;12.00;99.90;;;12.38;nan;101423.53;5012486;28;20641;-65
2022/10/27 05:29:33;;;;;;;3.40;3.10;;;12.00;99.90;;;12.34;nan;101423.81;5011927;28;21200;-65
2022/10/27 05:31:59;;;;;;;3.30;3.10;;;12.00;99.90;;;12.20;nan;101416.88;5011421;28;20616;-68
2022/10/27 05:34:26;;;;;;;4.30;2.93;;;11.90;99.90;;;12.19;nan;101419.59;5006249;28;20669;-65
2022/10/27 05:36:53;;;;;;;5.53;3.50;;;11.90;99.90;;;11.98;nan;101414.00;5005416;28;20641;-65
2022/10/27 05:39:20;;;;;;;4.07;3.30;;;11.80;99.90;;;12.05;nan;101420.50;5011254;28;20999;-65
2022/10/27 05:41:47;;;;;;;3.77;3.20;;;11.80;99.90;;;12.10;nan;101417.59;5011048;28;21181;-66
2022/10/27 05:44:14;;;;;;;3.37;3.07;;;11.70;99.90;;;12.06;nan;101405.66;4999223;28;20634;-67
2022/10/27 05:46:41;;;;;;;3.10;2.80;;;11.70;99.90;;;11.98;nan;101411.41;5011903;28;20614;-65
2022/10/27 05:49:09;;;;;;;6.93;2.60;;;11.70;99.90;;;12.03;nan;101406.69;5011017;28;21369;-67
2022/10/27 05:51:36;;;;;;;3.27;3.03;;;11.70;99.90;;;12.15;nan;101411.13;5011219;28;20652;-64
2022/10/27 05:54:03;;;;;;;3.63;3.30;;;11.70;99.90;;;12.18;nan;101405.69;5010454;28;20646;-65
2022/10/27 05:56:30;;;;;;;3.07;2.87;;;11.80;99.90;;;12.33;nan;101409.06;5012039;28;20806;-65
2022/10/27 05:58:57;;;;;;;3.23;2.67;;;11.80;99.90;;;12.36;nan;101401.84;5010780;28;20687;-64
2022/10/27 06:01:24;;;;;;;2.93;2.60;;;11.90;99.90;;;12.34;nan;101400.28;5009436;28;21226;-65
2022/10/27 06:03:50;;;;;;;2.70;2.50;;;11.90;99.90;;;12.41;nan;101391.88;5005649;28;21016;-63
2022/10/27 06:06:17;;;;;;;3.20;3.00;;;11.90;99.90;;;12.30;nan;101397.03;5010674;28;21039;-65
2022/10/27 06:08:44;;;;;;;3.57;3.30;;;11.90;99.90;;;12.33;nan;101395.97;5012370;28;21196;-67
2022/10/27 06:11:11;;;;;;;3.93;3.23;;;11.90;99.90;;;12.30;nan;101394.41;5011549;28;20652;-65
2022/10/27 06:13:38;;;;;;;9.43;3.40;;;11.90;99.90;;;12.30;nan;101398.81;5011948;28;20669;-65
2022/10/27 06:16:05;;;;;;;3.87;3.47;;;11.90;99.90;;;12.32;nan;101402.16;5011758;28;20664;-65
2022/10/27 06:18:34;;;;;;;3.00;2.80;;;11.90;99.90;;;12.36;nan;101411.47;5011119;28;20639;-65
2022/10/27 06:21:01;;;;;;;3.83;3.53;;;11.90;99.90;;;12.40;nan;101407.72;5010907;28;20688;-67
2022/10/27 06:23:27;;;;;;;2.67;2.57;;;11.90;99.90;;;12.42;nan;101411.91;5012041;28;20636;-65
2022/10/27 06:25:55;;;;;;;3.93;3.30;;;12.00;99.90;;;12.52;nan;101416.53;5010802;28;20665;-65
2022/10/27 06:28:22;;;;;;;3.87;3.47;;;12.00;99.90;;;12.48;nan;101424.56;5011026;28;20975;-65
2022/10/27 06:30:49;;;;;;;3.40;3.13;;;12.00;99.90;;;12.54;nan;101414.63;5011169;28;21245;-65
2022/10/27 06:33:16;;;;;;;3.77;3.40;;;12.00;99.90;;;12.46;nan;101415.13;5012018;28;20653;-65
2022/10/27 06:35:45;;;;;;;3.63;3.30;;;12.00;99.90;;;12.43;nan;101426.69;4993670;28;20634;-67
2022/10/27 06:38:15;;;;;;;2.97;2.77;;;12.00;99.90;;;12.48;nan;101423.72;4992886;28;20964;-65
2022/10/27 06:40:43;;;;;;;3.10;2.80;;;12.00;99.90;;;12.58;nan;101424.81;5010915;28;20629;-65
2022/10/27 06:43:15;;;;;;;2.57;2.27;;;12.00;99.90;;;12.61;nan;101426.34;5007852;28;20703;-65
2022/10/27 06:45:47;;;;;;;2.90;2.70;;;12.10;99.90;;;12.68;nan;101431.09;5010202;28;20668;-65
2022/10/27 06:48:14;;;;;;;2.97;2.77;;;12.10;99.90;;;12.76;nan;101438.41;5010327;28;20626;-64
2022/10/27 06:50:41;;;;;;;2.80;2.63;;;12.10;99.90;;;12.82;nan;101443.25;4991247;28;20634;-65
2022/10/27 06:53:07;;;;;;;4.07;3.60;;;12.20;99.90;;;12.92;nan;101439.91;4996205;28;20640;-66
2022/10/27 06:55:35;;;;;;;5.33;3.53;;;12.20;99.90;;;12.88;nan;101441.06;5009640;28;20688;-65
2022/10/27 06:58:02;;;;;;;7.73;3.80;;;12.30;99.90;;;13.11;nan;101445.56;5010612;28;20621;-67
2022/10/27 07:00:30;;;;;;;3.87;3.50;;;12.40;99.90;;;13.24;nan;101448.16;5013044;28;21024;-64
2022/10/27 07:02:56;;;;;;;4.07;3.40;;;12.40;99.90;;;13.16;nan;101451.31;5014820;28;20660;-65
2022/10/27 07:05:24;;;;;;;3.67;3.37;;;12.50;99.90;;;13.28;nan;101457.50;5011512;28;20682;-67
2022/10/27 07:07:52;;;;;;;6.10;3.60;;;12.60;99.90;;;13.46;nan;101456.19;5009361;28;21458;-65
2022/10/27 07:10:20;;;;;;;3.67;3.23;;;12.60;99.90;;;13.63;nan;101458.44;5009983;28;20630;-67
2022/10/27 07:12:59;;;;;;;3.27;2.97;;;12.70;99.90;;;13.87;nan;101461.09;5011235;28;20626;-65
2022/10/27 07:15:32;;;;;;;4.43;3.33;;;12.90;99.90;;;14.05;nan;101462.38;5010926;28;20676;-66
2022/10/27 07:18:06;;;;;;;3.63;3.17;;;13.00;99.90;;;14.20;nan;101457.78;5010843;28;20622;-63
2022/10/27 07:20:34;;;;;;;5.20;3.43;;;13.10;99.90;;;14.44;nan;101469.94;5010563;28;20634;-65
2022/10/27 07:23:02;;;;;;;3.60;3.30;;;13.30;99.90;;;14.63;nan;101472.03;5001008;28;20649;-65
2022/10/27 07:25:31;;;;;;;7.00;3.77;;;13.40;99.90;;;14.76;nan;101475.41;5009535;28;20683;-65
2022/10/27 07:28:00;;;;;;;4.60;3.93;;;13.60;99.90;;;14.89;nan;101478.78;5006641;28;20644;-66
2022/10/27 07:30:33;;;;;;;4.70;3.63;;;13.70;99.90;;;15.14;nan;101475.91;5009632;28;20630;-65
2022/10/27 07:33:00;;;;;;;5.47;3.73;;;13.80;99.90;;;15.28;nan;101482.75;5009970;28;21193;-65
2022/10/27 07:35:27;;;;;;;6.00;3.80;;;14.00;99.90;;;15.57;nan;101483.13;5000423;28;20679;-65
2022/10/27 07:37:54;;;;;;;6.17;3.90;;;14.10;99.90;;;16.01;nan;101475.97;5009367;28;20610;-66
2022/10/27 07:40:23;;;;;;;7.57;4.00;;;14.40;99.90;;;16.63;nan;101473.41;5010695;28;20640;-63
2022/10/27 07:42:55;;;;;;;6.20;4.17;;;14.80;99.90;;;17.18;nan;101474.00;5008698;28;20634;-64
2022/10/27 07:45:24;;;;;;;9.73;4.83;;;15.20;99.90;;;17.86;nan;101468.84;4990256;28;21269;-65
2022/10/27 07:47:54;;;;;;;5.87;4.17;;;15.70;99.90;;;18.54;nan;101476.66;5010545;28;20640;-66
2022/10/27 07:50:32;;;;;;;7.30;4.83;;;16.30;99.90;;;19.26;nan;101478.69;5007807;28;20642;-65
2022/10/27 07:53:00;;;;;;;6.37;5.10;;;16.80;99.90;;;20.00;nan;101474.09;5010172;28;20642;-65
2022/10/27 07:55:30;;;;;;;6.00;4.73;;;17.50;99.90;;;21.09;nan;101485.13;5011503;28;20662;-66
2022/10/27 07:58:06;;;;;;;9.40;5.23;;;18.20;99.90;;;22.12;nan;101483.03;4998011;28;20618;-65
2022/10/27 08:00:35;;;;;;;9.63;5.03;;;19.00;99.90;;;;;;5013982;28;20699;-65
2022/10/27 08:03:03;;;;;;;6.80;4.57;;;20.30;99.90;;;;;;5010761;28;20625;-64
2022/10/27 08:05:31;;;;;;;8.30;5.30;;;21.70;99.90;;;;;;5013077;28;20703;-67
2022/10/27 08:08:03;;;;;;;11.83;6.10;;;23.10;99.90;;;;;;4996021;28;21209;-66
2022/10/27 08:10:31;;;;;;;8.93;4.47;;;24.50;99.90;;;;;;5010384;28;20981;-65
2022/10/27 08:12:58;;;;;;;6.00;4.73;;;25.80;97.50;;;;;;5014945;28;20609;-66
2022/10/27 08:15:25;;;;;;;6.60;5.40;;;27.00;93.50;;;;;;5013881;28;20677;-65
2022/10/27 08:17:53;;;;;;;5.50;5.00;;;27.60;91.20;;;;;;5013476;28;20618;-66
2022/10/27 08:20:21;;;;;;;7.80;4.87;;;27.50;90.00;;;;;;5012053;28;20780;-68
2022/10/27 08:22:54;;;;;;;6.50;4.50;;;26.40;90.40;;;;;;5009403;28;20684;-66
2022/10/27 08:25:22;;;;;;;6.17;5.03;;;25.00;92.00;;;;;;5012023;28;20661;-66
2022/10/27 08:27:49;;;;;;;5.87;5.27;;;24.00;93.90;;;;;;5012677;28;20621;-63
2022/10/27 08:30:21;;;;;;;8.83;6.30;;;23.30;95.80;;;;;;5012798;28;20629;-65
2022/10/27 08:32:48;;;;;;;6.80;5.80;;;22.60;97.70;;;;;;5001772;28;20629;-66
2022/10/27 08:35:16;;;;;;;10.77;6.60;;;22.30;99.20;;;;;;5009607;28;20677;-66
2022/10/27 08:37:43;;;;;;;9.37;5.93;;;22.00;99.90;;;;;;5000945;28;21043;-65
2022/10/27 08:40:10;;;;;;;8.47;6.10;;;21.90;99.90;;;;;;4995093;28;20622;-65
2022/10/27 08:43:12;;;;;;;8.60;4.80;;;21.90;99.90;;;;;;5013580;28;20633;-68
2022/10/27 08:45:49;;;;;;;14.73;7.20;;;21.90;99.90;;;;;;5011364;28;21271;-63
2022/10/27 08:48:21;;;;;;;29.97;20.20;;;22.60;99.90;;;;;;5011827;28;20625;-68
2022/10/27 08:50:49;;;;;;;9.30;6.57;;;23.60;99.90;;;;;;5011843;28;21005;-65
2022/10/27 08:53:21;;;;;;;7.20;6.30;;;24.00;99.10;;;;;;5005828;28;20641;-66
2022/10/27 08:55:48;;;;;;;8.37;6.60;;;23.80;98.70;;;;;;5011608;28;21300;-65
2022/10/27 08:58:39;;;;;;;8.57;6.73;;;23.50;99.10;;;;;;5012192;28;20605;-64
2022/10/27 09:01:32;;;;;;;12.23;6.67;;;23.30;99.70;;;;;;5012077;28;20673;-64
2022/10/27 09:04:05;;;;;;;10.40;6.80;;;23.30;99.90;;;;;;5007776;28;21073;-66
2022/10/27 09:06:58;;;;;;;9.20;6.37;;;23.10;99.90;;;;;;5011506;28;21259;-65
2022/10/27 09:09:45;;;;;;;9.30;6.00;;;23.00;99.90;;;;;;5012159;28;20617;-65
2022/10/27 09:12:45;;;;;;;8.00;5.00;;;22.90;99.90;;;;;;5013320;28;20640;-63
2022/10/27 09:15:26;;;;;;;9.40;6.73;;;23.00;99.90;;;;;;5012417;28;20673;-65
2022/10/27 09:18:09;;;;;;;10.90;6.50;;;23.00;99.90;;;;;;4994399;28;20969;-65
2022/10/27 09:20:42;;;;;;;7.47;6.17;;;23.00;99.90;;;;;;4996565;28;20633;-64
2022/10/27 09:23:16;;;;;;;7.70;6.17;;;23.20;99.90;;;;;;5008612;28;20621;-64
2022/10/27 09:25:45;;;;;;;10.77;6.97;;;24.30;99.90;;;;;;5010920;28;20712;-66
2022/10/27 09:28:24;;;;;;;9.53;6.90;;;26.40;97.40;;;36.34;nan;101496.06;5012290;28;20613;-61
2022/10/27 09:30:52;;;;;;;11.00;7.63;;;28.90;93.00;;;38.83;nan;101493.91;4995770;28;20683;-65
2022/10/27 09:33:25;;;;;;;7.77;6.37;;;31.10;86.20;;;40.57;nan;101493.19;5001896;28;20630;-66
2022/10/27 09:35:53;;;;;;;8.80;7.20;;;32.80;77.30;;;41.51;nan;101488.84;5008835;28;20657;-65
2022/10/27 09:38:24;;;;;;;7.40;6.70;;;34.10;70.50;;;42.31;nan;101490.34;5013395;28;20614;-65
2022/10/27 09:40:51;;;;;;;10.07;6.90;;;35.00;66.00;;;42.25;nan;101477.81;4995378;28;20618;-65
2022/10/27 09:43:22;;;;;;;7.47;6.73;;;35.70;62.50;;;43.10;nan;101474.56;5013384;28;20606;-64
2022/10/27 09:45:54;;;;;;;6.20;5.70;;;36.30;60.70;;;43.90;nan;101477.44;4996964;28;20672;-65
2022/10/27 09:48:24;;;;;;;16.73;7.20;;;36.90;58.40;;;44.58;nan;101477.06;5011860;28;20630;-66
2022/10/27 09:51:07;;;;;;;7.10;6.40;;;37.40;56.80;;;44.80;nan;101479.78;5010777;28;20681;-65
2022/10/27 09:53:45;;;;;;;7.20;6.60;;;37.60;55.90;;;44.86;nan;101481.25;4994326;28;20620;-65
2022/10/27 09:56:17;;;;;;;7.83;5.73;;;37.70;55.20;;;44.13;nan;101479.06;5012759;28;20683;-65
2022/10/27 09:58:57;;;;;;;10.90;9.83;;;37.70;54.00;;;44.81;nan;101475.88;5011621;28;20622;-65
2022/10/27 10:01:27;;;;;;;7.67;6.97;;;37.70;54.40;;;45.11;nan;101463.97;5010997;28;20605;-65
2022/10/27 10:04:02;;;;;;;7.27;6.50;;;37.90;53.80;;;45.15;nan;101459.44;5012187;28;20638;-65
2022/10/27 10:06:36;;;;;;;7.27;6.40;;;38.10;53.40;;;45.67;nan;101459.53;5005146;28;21029;-65
2022/10/27 10:09:29;;;;;;;6.87;6.27;;;38.40;52.80;;;46.01;nan;101452.03;4994174;28;20605;-65
2022/10/27 10:12:24;;;;;;;6.97;6.27;;;38.90;52.20;;;46.55;nan;101452.38;5010487;28;20638;-66
2022/10/27 10:15:11;;;;;;;6.60;6.10;;;39.30;51.60;;;47.12;nan;101453.56;5003198;28;20678;-65
2022/10/27 10:17:51;;;;;;;8.70;5.80;;;39.80;50.60;;;46.99;nan;101453.78;5010737;28;20671;-65
2022/10/27 10:20:33;;;;;;;6.57;6.07;;;40.10;50.30;;;43.82;nan;101456.19;5010095;28;20632;-67
2022/10/27 10:23:03;;;;;;;6.87;6.27;;;38.80;50.90;;;38.39;nan;101437.28;5006282;28;20637;-64
2022/10/27 10:25:32;;;;;;;8.40;7.27;;;36.10;52.70;;;33.86;nan;101432.53;5010268;28;21301;-66
2022/10/27 10:28:05;;;;;;;9.53;7.40;;;33.00;56.20;;;30.73;nan;101425.84;5005739;28;20822;-63
2022/10/27 10:30:37;;;;;;;7.87;7.07;;;30.40;60.20;;;28.61;nan;101426.41;5009851;28;20630;-65
2022/10/27 10:33:05;;;;;;;9.83;7.40;;;28.30;64.40;;;26.92;nan;101424.09;5010990;28;20622;-65
2022/10/27 10:35:48;;;;;;;11.80;6.90;;;26.50;68.70;;;25.33;nan;101420.09;5008167;28;21048;-66
2022/10/27 10:38:34;;;;;;;8.60;7.27;;;24.90;74.30;;;24.19;nan;101418.81;5011349;28;20628;-64
2022/10/27 10:41:16;;;;;;;10.07;7.90;;;23.60;81.10;;;23.38;nan;101426.50;5009831;28;20723;-64
2022/10/27 10:43:43;;;;;;;11.60;8.40;;;22.80;90.60;;;22.84;nan;101414.84;5012294;28;20632;-65
2022/10/27 10:46:23;;;;;;;12.50;7.03;;;22.10;96.40;;;22.39;nan;101410.91;5009013;28;20691;-65
2022/10/27 10:48:57;;;;;;;11.77;6.80;;;21.60;99.90;;;21.76;nan;101409.03;5007574;28;20672;-64
2022/10/27 10:51:34;;;;;;;14.53;7.30;;;21.00;99.90;;;21.45;nan;101406.13;5010822;28;20641;-65
2022/10/27 10:54:18;;;;;;;17.77;10.10;;;20.70;99.90;;;21.12;nan;101401.72;5010503;28;20645;-66
2022/10/27 10:56:51;;;;;;;14.40;9.17;;;20.40;99.90;;;20.91;nan;101403.91;4992562;28;20628;-65
2022/10/27 10:59:30;;;;;;;10.47;7.83;;;20.10;99.90;;;20.79;nan;101393.56;5010071;28;20634;-65